Main page
Satellite images 15-day forecastsClimateMarine weather Cyclones Lightning AirportsFAQ Newsletter About
Weather : Europe Africa North America South America Asia Australia-Oceania Others
Languages Contact

Eleusina, Greece

latitude: 38-04N, longitude: 023-33E, elevation: 44 m


METAR: LGEL 230250Z 25004KT CAVOK 24/15 Q1005 NOSIG
short-TAF: out of date (19024 hours)
long-TAF: LGEL 221700Z 2218/2318 27012KT 9999 FEW020 TEMPO 2309/2316 20015KT

Time: 06:23 (03:23 UTC)

Current weather observation

The report was made 33 minutes ago, at 02:50 UTC  
Wind 04 kt from the West/Southwest
Temperature 24°C
Humidity 57%
Pressure 1005 hPa
Visibility 10 km or more
no clouds below 1500 m and no cumulonimbus

Change units

Forecast

The report was made 10 hours and 11 minutes ago, at 17:12 UTC  
Forecast valid from 22 at 18 UTC to 23 at 18 UTC
Wind 12 kt from the West
Visibility 10 km or more
Few clouds at a height of 2000 ft
Temporary
from 23 at 09 UTC to 23 at 16 UTC
Wind 15 kt from the South/Southwest
The information on this site is subject to a disclaimer
Weather : Europe Africa North America South America Asia Australia-Oceania Others
Satellite images 15-day forecastsClimateMarine weather Cyclones Lightning AirportsFAQ Languages Contact Newsletter About